sensor_id;sensor_type;location;lat;lon;timestamp;P1;durP1;ratioP1;P2;durP2;ratioP2
16673;SDS011;8450;52.654;10.326;2023-02-11T08:27:46;31.77;;;22.20;;
16673;SDS011;8450;52.654;10.326;2023-02-11T08:30:12;33.83;;;22.53;;
16673;SDS011;8450;52.654;10.326;2023-02-11T08:32:38;31.27;;;23.20;;
16673;SDS011;8450;52.654;10.326;2023-02-11T08:35:04;31.73;;;22.07;;
16673;SDS011;8450;52.654;10.326;2023-02-11T08:37:31;29.60;;;22.00;;
16673;SDS011;8450;52.654;10.326;2023-02-11T08:39:57;32.30;;;22.90;;
16673;SDS011;8450;52.654;10.326;2023-02-11T08:42:23;31.80;;;21.57;;
16673;SDS011;8450;52.654;10.326;2023-02-11T08:44:48;28.87;;;20.47;;
16673;SDS011;8450;52.654;10.326;2023-02-11T08:47:14;26.20;;;21.17;;
16673;SDS011;8450;52.654;10.326;2023-02-11T08:49:39;29.27;;;20.60;;
16673;SDS011;8450;52.654;10.326;2023-02-11T08:52:06;24.10;;;18.97;;
16673;SDS011;8450;52.654;10.326;2023-02-11T08:54:32;27.93;;;19.60;;
16673;SDS011;8450;52.654;10.326;2023-02-11T08:56:58;24.93;;;19.27;;
16673;SDS011;8450;52.654;10.326;2023-02-11T08:59:25;24.13;;;19.50;;
16673;SDS011;8450;52.654;10.326;2023-02-11T09:01:51;26.83;;;20.13;;
16673;SDS011;8450;52.654;10.326;2023-02-11T09:04:16;25.53;;;18.83;;
16673;SDS011;8450;52.654;10.326;2023-02-11T09:06:42;30.63;;;20.07;;
16673;SDS011;8450;52.654;10.326;2023-02-11T09:09:09;27.00;;;18.80;;
16673;SDS011;8450;52.654;10.326;2023-02-11T09:11:38;21.83;;;18.03;;
16673;SDS011;8450;52.654;10.326;2023-02-11T09:14:05;25.30;;;19.87;;
16673;SDS011;8450;52.654;10.326;2023-02-11T09:16:34;24.87;;;16.93;;
16673;SDS011;8450;52.654;10.326;2023-02-11T09:19:01;25.73;;;18.60;;
16673;SDS011;8450;52.654;10.326;2023-02-11T09:21:28;25.33;;;18.30;;
16673;SDS011;8450;52.654;10.326;2023-02-11T09:23:54;25.77;;;19.00;;
16673;SDS011;8450;52.654;10.326;2023-02-11T09:26:23;25.60;;;17.67;;
16673;SDS011;8450;52.654;10.326;2023-02-11T09:28:51;22.47;;;17.60;;
16673;SDS011;8450;52.654;10.326;2023-02-11T09:31:18;25.53;;;18.30;;
16673;SDS011;8450;52.654;10.326;2023-02-11T09:33:46;25.70;;;19.07;;
16673;SDS011;8450;52.654;10.326;2023-02-11T09:36:23;24.10;;;18.63;;
16673;SDS011;8450;52.654;10.326;2023-02-11T09:38:50;23.80;;;17.47;;
16673;SDS011;8450;52.654;10.326;2023-02-11T09:41:21;18.00;;;15.90;;
16673;SDS011;8450;52.654;10.326;2023-02-11T09:43:49;25.23;;;17.60;;
16673;SDS011;8450;52.654;10.326;2023-02-11T09:46:18;22.53;;;17.43;;
16673;SDS011;8450;52.654;10.326;2023-02-11T09:48:46;23.13;;;18.57;;
16673;SDS011;8450;52.654;10.326;2023-02-11T09:51:15;28.77;;;19.47;;
16673;SDS011;8450;52.654;10.326;2023-02-11T09:53:47;23.60;;;16.97;;
16673;SDS011;8450;52.654;10.326;2023-02-11T09:56:16;20.77;;;17.13;;
16673;SDS011;8450;52.654;10.326;2023-02-11T09:58:42;19.87;;;17.07;;
16673;SDS011;8450;52.654;10.326;2023-02-11T10:12:10;23.47;;;18.73;;
16673;SDS011;8450;52.654;10.326;2023-02-11T10:14:58;20.30;;;16.87;;
16673;SDS011;8450;52.654;10.326;2023-02-11T10:21:16;26.37;;;18.70;;
16673;SDS011;8450;52.654;10.326;2023-02-11T10:23:32;24.87;;;18.73;;
16673;SDS011;8450;52.654;10.326;2023-02-11T10:26:00;21.23;;;15.83;;
16673;SDS011;8450;52.654;10.326;2023-02-11T10:28:28;24.33;;;18.47;;
16673;SDS011;8450;52.654;10.326;2023-02-11T10:31:00;27.67;;;17.80;;
16673;SDS011;8450;52.654;10.326;2023-02-11T10:33:36;22.07;;;17.10;;
16673;SDS011;8450;52.654;10.326;2023-02-11T10:36:17;23.10;;;15.77;;
16673;SDS011;8450;52.654;10.326;2023-02-11T10:38:45;25.37;;;18.07;;
16673;SDS011;8450;52.654;10.326;2023-02-11T10:41:12;23.07;;;16.83;;
16673;SDS011;8450;52.654;10.326;2023-02-11T10:43:43;22.70;;;17.17;;
16673;SDS011;8450;52.654;10.326;2023-02-11T10:46:09;28.50;;;19.63;;
16673;SDS011;8450;52.654;10.326;2023-02-11T10:48:48;22.80;;;17.00;;
16673;SDS011;8450;52.654;10.326;2023-02-11T10:51:21;23.30;;;16.67;;
16673;SDS011;8450;52.654;10.326;2023-02-11T10:56:30;23.23;;;17.63;;
16673;SDS011;8450;52.654;10.326;2023-02-11T10:59:03;22.60;;;17.80;;
16673;SDS011;8450;52.654;10.326;2023-02-11T11:01:51;25.27;;;18.07;;
16673;SDS011;8450;52.654;10.326;2023-02-11T11:06:58;23.27;;;17.60;;
16673;SDS011;8450;52.654;10.326;2023-02-11T11:12:49;24.37;;;17.37;;
16673;SDS011;8450;52.654;10.326;2023-02-11T11:15:14;23.87;;;17.10;;
16673;SDS011;8450;52.654;10.326;2023-02-11T11:17:44;24.97;;;17.80;;
16673;SDS011;8450;52.654;10.326;2023-02-11T11:22:40;19.40;;;16.10;;
16673;SDS011;8450;52.654;10.326;2023-02-11T11:25:26;23.17;;;18.00;;
16673;SDS011;8450;52.654;10.326;2023-02-11T11:27:55;22.23;;;17.17;;
16673;SDS011;8450;52.654;10.326;2023-02-11T11:30:24;22.57;;;17.53;;
16673;SDS011;8450;52.654;10.326;2023-02-11T11:32:55;21.40;;;17.60;;
16673;SDS011;8450;52.654;10.326;2023-02-11T11:35:23;20.10;;;15.70;;
16673;SDS011;8450;52.654;10.326;2023-02-11T11:37:52;22.33;;;16.60;;
16673;SDS011;8450;52.654;10.326;2023-02-11T11:40:27;22.67;;;16.73;;
16673;SDS011;8450;52.654;10.326;2023-02-11T11:43:02;18.00;;;14.40;;
16673;SDS011;8450;52.654;10.326;2023-02-11T11:45:37;19.87;;;15.10;;
16673;SDS011;8450;52.654;10.326;2023-02-11T11:48:09;20.43;;;15.53;;
16673;SDS011;8450;52.654;10.326;2023-02-11T11:50:47;20.70;;;15.83;;
16673;SDS011;8450;52.654;10.326;2023-02-11T11:53:32;21.87;;;16.10;;
16673;SDS011;8450;52.654;10.326;2023-02-11T11:56:13;22.50;;;16.93;;
16673;SDS011;8450;52.654;10.326;2023-02-11T11:58:44;23.33;;;18.33;;
16673;SDS011;8450;52.654;10.326;2023-02-11T12:07:09;22.47;;;16.43;;
16673;SDS011;8450;52.654;10.326;2023-02-11T12:10:00;20.77;;;15.87;;
16673;SDS011;8450;52.654;10.326;2023-02-11T12:12:53;15.90;;;14.13;;
16673;SDS011;8450;52.654;10.326;2023-02-11T12:15:30;16.50;;;14.60;;
16673;SDS011;8450;52.654;10.326;2023-02-11T12:21:16;19.20;;;14.27;;
16673;SDS011;8450;52.654;10.326;2023-02-11T12:23:54;17.97;;;14.80;;
16673;SDS011;8450;52.654;10.326;2023-02-11T12:32:43;20.73;;;15.87;;
16673;SDS011;8450;52.654;10.326;2023-02-11T12:40:56;18.53;;;15.27;;
16673;SDS011;8450;52.654;10.326;2023-02-11T12:44:04;20.10;;;15.03;;
16673;SDS011;8450;52.654;10.326;2023-02-11T12:46:42;20.90;;;14.63;;
16673;SDS011;8450;52.654;10.326;2023-02-11T12:57:14;20.63;;;14.20;;
16673;SDS011;8450;52.654;10.326;2023-02-11T13:02:28;19.53;;;15.50;;
16673;SDS011;8450;52.654;10.326;2023-02-11T13:05:10;17.93;;;14.10;;
16673;SDS011;8450;52.654;10.326;2023-02-11T13:07:43;15.03;;;13.40;;
16673;SDS011;8450;52.654;10.326;2023-02-11T13:10:32;16.67;;;14.90;;
16673;SDS011;8450;52.654;10.326;2023-02-11T13:13:01;16.43;;;14.30;;
16673;SDS011;8450;52.654;10.326;2023-02-11T13:15:45;17.43;;;14.47;;
16673;SDS011;8450;52.654;10.326;2023-02-11T13:21:09;15.57;;;13.07;;
16673;SDS011;8450;52.654;10.326;2023-02-11T13:23:45;18.17;;;15.43;;
16673;SDS011;8450;52.654;10.326;2023-02-11T13:26:20;18.90;;;15.23;;
16673;SDS011;8450;52.654;10.326;2023-02-11T13:29:05;16.43;;;13.50;;
16673;SDS011;8450;52.654;10.326;2023-02-11T13:31:52;17.83;;;14.53;;
16673;SDS011;8450;52.654;10.326;2023-02-11T13:35:15;15.50;;;13.33;;
16673;SDS011;8450;52.654;10.326;2023-02-11T13:37:23;18.53;;;14.37;;
16673;SDS011;8450;52.654;10.326;2023-02-11T13:40:00;17.33;;;13.83;;
16673;SDS011;8450;52.654;10.326;2023-02-11T13:42:29;16.00;;;13.87;;
16673;SDS011;8450;52.654;10.326;2023-02-11T14:42:14;16.70;;;13.37;;
16673;SDS011;8450;52.654;10.326;2023-02-11T14:44:43;15.00;;;13.10;;
16673;SDS011;8450;52.654;10.326;2023-02-11T14:47:16;15.93;;;13.40;;
16673;SDS011;8450;52.654;10.326;2023-02-11T14:49:44;13.90;;;12.40;;
16673;SDS011;8450;52.654;10.326;2023-02-11T14:54:41;19.90;;;15.90;;
16673;SDS011;8450;52.654;10.326;2023-02-11T15:01:53;17.73;;;13.80;;
